Time;durP1;ratioP1;P1;durP2;ratioP2;P2;SDS_P1;SDS_P2;PMS_P1;PMS_P2;Temp;Humidity;BMP_temperature;BMP_pressure;BME280_temperature;BME280_humidity;BME280_pressure;Samples;Min_cycle;Max_cycle;Signal;HPM_P1;HPM_P2
2021/01/01 00:00:14;;;;;;;66.90;28.32;;;;;;;1.86;82.54;100012.88;1714621;82;25791;-81
2021/01/01 00:02:44;;;;;;;57.15;26.40;;;;;;;1.86;82.69;100012.88;1713050;82;25873;-81
2021/01/01 00:05:17;;;;;;;68.85;29.02;;;;;;;1.87;82.66;100015.36;1710125;82;27333;-82
2021/01/01 00:07:45;;;;;;;50.98;24.82;;;;;;;1.85;82.79;100012.05;1739370;82;26262;-81
2021/01/01 00:10:14;;;;;;;49.42;23.65;;;;;;;1.85;82.49;100018.64;1685651;81;25858;-81
2021/01/01 00:12:50;;;;;;;50.28;24.92;;;;;;;1.83;82.31;100022.40;1824700;77;25693;-81
2021/01/01 00:15:17;;;;;;;50.40;22.65;;;;;;;1.71;82.46;100015.64;1722619;81;26014;-82
2021/01/01 00:17:45;;;;;;;49.13;23.02;;;;;;;1.64;82.27;100016.71;1747902;79;28599;-81
2021/01/01 00:20:12;;;;;;;54.85;25.23;;;;;;;1.59;82.35;100020.26;1727864;80;25856;-81
2021/01/01 00:22:43;;;;;;;54.95;24.63;;;;;;;1.57;82.51;100018.25;1758013;80;26292;-82
2021/01/01 00:25:11;;;;;;;47.27;21.73;;;;;;;1.60;82.64;100022.42;1708601;80;25867;-81
2021/01/01 00:27:40;;;;;;;46.63;20.90;;;;;;;1.58;82.52;100020.73;1690099;82;26391;-81
2021/01/01 00:30:11;;;;;;;58.75;25.48;;;;;;;1.54;82.58;100018.05;1678314;83;28636;-81
2021/01/01 00:32:42;;;;;;;53.92;24.37;;;;;;;1.58;82.84;100019.42;1689349;83;25943;-80
2021/01/01 00:35:11;;;;;;;66.45;29.32;;;;;;;1.63;82.94;100028.71;1593761;84;25861;-82
2021/01/01 00:37:40;;;;;;;59.90;27.77;;;;;;;1.67;82.90;100027.47;1658804;82;25850;-81
2021/01/01 00:40:08;;;;;;;68.17;28.73;;;;;;;1.71;83.07;100025.70;1680940;82;26489;-81
2021/01/01 00:42:37;;;;;;;63.58;28.02;;;;;;;1.76;83.08;100018.19;1688281;82;28529;-80
2021/01/01 00:45:06;;;;;;;55.85;25.00;;;;;;;1.80;82.99;100028.80;1644967;84;25385;-81
2021/01/01 00:47:34;;;;;;;52.80;23.60;;;;;;;1.78;82.74;100016.23;1680416;84;25911;-81
2021/01/01 00:50:01;;;;;;;51.95;23.07;;;;;;;1.75;82.50;100020.98;1666892;82;25993;-81
2021/01/01 00:52:29;;;;;;;54.33;23.83;;;;;;;1.68;82.47;100018.08;1697106;82;25687;-82
2021/01/01 00:54:56;;;;;;;62.93;26.55;;;;;;;1.64;82.64;100023.79;1657027;82;27540;-81
2021/01/01 00:57:23;;;;;;;58.38;25.15;;;;;;;1.66;82.75;100024.48;1638138;84;25908;-81
2021/01/01 00:59:51;;;;;;;57.15;24.45;;;;;;;1.64;82.77;100022.47;1669993;82;25411;-81
2021/01/01 01:02:18;;;;;;;54.00;23.22;;;;;;;1.65;82.83;100022.31;1687468;84;25843;-82
2021/01/01 01:04:46;;;;;;;58.08;26.40;;;;;;;1.69;83.01;100020.24;1652119;84;25926;-81
2021/01/01 01:07:13;;;;;;;57.73;25.23;;;;;;;1.69;82.82;100022.88;1650561;85;27553;-81
2021/01/01 01:09:40;;;;;;;55.65;22.75;;;;;;;1.65;82.72;100018.36;1671249;82;25888;-81
2021/01/01 01:12:08;;;;;;;58.50;25.80;;;;;;;1.60;82.57;100022.42;1695952;82;26488;-81
2021/01/01 01:14:36;;;;;;;62.75;25.75;;;;;;;1.53;82.64;100024.31;1634799;83;26585;-81
2021/01/01 01:17:03;;;;;;;67.53;28.27;;;;;;;1.50;82.79;100025.06;1650362;83;25847;-81
2021/01/01 01:19:30;;;;;;;54.25;23.05;;;;;;;1.52;83.06;100025.28;1658522;84;27326;-81
2021/01/01 01:21:58;;;;;;;56.63;23.02;;;;;;;1.57;82.94;100022.21;1655789;84;25406;-82
2021/01/01 01:24:25;;;;;;;61.55;26.57;;;;;;;1.54;82.85;100024.64;1634575;84;25863;-81
2021/01/01 01:26:52;;;;;;;54.80;23.60;;;;;;;1.54;82.99;100022.00;1640430;84;26066;-81
2021/01/01 01:29:20;;;;;;;61.98;23.83;;;;;;;1.56;82.98;100022.69;1679948;84;25922;-82
2021/01/01 01:31:47;;;;;;;55.30;24.55;;;;;;;1.62;82.89;100023.11;1682925;83;27538;-81
2021/01/01 01:34:14;;;;;;;53.78;23.07;;;;;;;1.60;82.74;100019.78;1624635;84;25923;-81
2021/01/01 01:36:42;;;;;;;56.02;22.90;;;;;;;1.57;82.68;100020.89;1635706;83;25831;-82
2021/01/01 01:39:09;;;;;;;53.80;23.52;;;;;;;1.57;82.91;100019.58;1664122;84;26156;-81
2021/01/01 01:41:36;;;;;;;52.80;23.00;;;;;;;1.62;82.92;100023.11;1680441;83;25916;-81
2021/01/01 01:44:04;;;;;;;59.20;25.80;;;;;;;1.61;82.91;100018.30;1655787;84;27832;-81
2021/01/01 01:46:42;;;;;;;65.08;26.33;;;;;;;1.64;82.97;100022.47;1620561;87;26016;-81
2021/01/01 01:49:14;;;;;;;57.38;24.67;;;;;;;1.65;82.89;100021.00;1654733;86;26393;-81
2021/01/01 01:51:46;;;;;;;60.98;25.17;;;;;;;1.66;82.95;100021.84;1680664;84;26171;-81
2021/01/01 01:54:16;;;;;;;60.10;25.40;;;;;;;1.66;82.86;100025.31;1656445;84;25762;-81
2021/01/01 01:56:45;;;;;;;61.05;26.90;;;;;;;1.62;82.81;100027.06;1682011;83;27519;-81
2021/01/01 01:59:16;;;;;;;57.40;26.52;;;;;;;1.60;82.92;100020.62;1660244;83;25965;-81
2021/01/01 02:01:43;;;;;;;;;;;;;;;1.61;82.99;100029.34;1658213;83;25755;-81
2021/01/01 02:04:10;;;;;;;61.23;25.12;;;;;;;1.58;82.78;100027.34;1662849;83;25836;-82
2021/01/01 02:06:41;;;;;;;60.67;25.10;;;;;;;1.53;82.95;100024.80;1675737;83;26101;-81
2021/01/01 02:09:07;;;;;;;56.67;25.33;;;;;;;1.53;83.03;100029.59;1657143;84;27317;-81
2021/01/01 02:11:35;;;;;;;64.72;28.90;;;;;;;1.52;83.01;100025.76;1638027;86;25791;-81
2021/01/01 02:14:02;;;;;;;67.27;27.80;;;;;;;1.56;83.13;100029.29;1681353;83;26571;-80
2021/01/01 02:16:34;;;;;;;61.77;26.82;;;;;;;1.55;82.94;100025.00;1693572;83;25967;-83
2021/01/01 02:19:01;;;;;;;70.35;26.97;;;;;;;1.54;83.04;100025.12;1648349;84;26012;-81
2021/01/01 02:21:28;;;;;;;67.30;26.15;;;;;;;1.55;83.15;100025.00;1660665;84;27609;-81
2021/01/01 02:23:56;;;;;;;68.33;27.62;;;;;;;1.58;83.22;100023.37;1665581;84;25774;-81
2021/01/01 02:26:23;;;;;;;64.03;26.50;;;;;;;1.63;83.27;100027.39;1663037;83;25435;-81
2021/01/01 02:28:51;;;;;;;64.58;26.50;;;;;;;1.66;83.22;100026.64;1666156;83;25878;-80
2021/01/01 02:31:18;;;;;;;61.83;26.82;;;;;;;1.67;83.16;100022.20;1658050;84;25505;-81
2021/01/01 02:33:46;;;;;;;66.17;23.83;;;;;;;1.69;83.08;100028.16;1693118;84;28441;-81
2021/01/01 02:36:13;;;;;;;59.03;25.80;;;;;;;1.65;82.82;100035.52;1680259;82;25789;-81
2021/01/01 02:38:40;;;;;;;55.95;25.20;;;;;;;1.62;82.85;100032.34;1635779;85;26361;-81
2021/01/01 02:41:08;;;;;;;63.52;27.22;;;;;;;1.56;82.75;100029.80;1646737;85;26084;-81
2021/01/01 02:43:35;;;;;;;60.50;25.85;;;;;;;1.54;82.93;100027.77;1656488;83;25814;-81
2021/01/01 02:46:02;;;;;;;65.08;25.80;;;;;;;1.55;83.02;100025.48;1670709;84;27364;-81
2021/01/01 02:48:30;;;;;;;53.83;24.47;;;;;;;1.55;83.03;100025.00;1634662;84;25390;-82
2021/01/01 02:50:57;;;;;;;60.63;25.35;;;;;;;1.49;82.79;100032.18;1651106;84;25951;-81
2021/01/01 02:53:24;;;;;;;63.68;26.87;;;;;;;1.41;82.89;100035.99;1672039;83;26175;-81
2021/01/01 02:55:52;;;;;;;67.27;26.93;;;;;;;1.41;83.11;100029.91;1691260;81;25407;-81
2021/01/01 02:58:19;;;;;;;59.80;26.65;;;;;;;1.41;83.28;100026.76;1655552;83;27564;-81
2021/01/01 03:00:49;;;;;;;63.85;27.65;;;;;;;1.45;83.41;100026.81;1669792;84;25700;-82
2021/01/01 03:03:17;;;;;;;64.32;26.07;;;;;;;1.51;83.48;100029.39;1669551;84;25853;-82
2021/01/01 03:05:47;;;;;;;65.42;27.10;;;;;;;1.51;83.36;100022.31;1656417;83;25887;-81
2021/01/01 03:08:14;;;;;;;62.90;26.07;;;;;;;1.58;83.41;100025.69;1668505;83;25468;-82
2021/01/01 03:10:41;;;;;;;61.92;27.05;;;;;;;1.59;83.35;100025.53;1691011;82;28483;-81
2021/01/01 03:13:09;;;;;;;61.45;25.05;;;;;;;1.62;83.25;100024.42;1700534;83;25911;-81
2021/01/01 03:15:36;;;;;;;59.58;24.63;;;;;;;1.64;83.17;100026.43;1668538;84;25738;-81
2021/01/01 03:18:04;;;;;;;59.23;24.50;;;;;;;1.64;82.97;100026.43;1654708;83;26722;-81
2021/01/01 03:20:31;;;;;;;52.23;23.05;;;;;;;1.58;82.75;100025.20;1684567;83;25889;-81
2021/01/01 03:22:59;;;;;;;49.90;21.73;;;;;;;1.52;82.76;100022.64;1677237;83;28417;-81
2021/01/01 03:25:26;;;;;;;57.88;23.95;;;;;;;1.46;82.67;100030.30;1675756;84;25750;-81
2021/01/01 03:27:53;;;;;;;58.00;23.07;;;;;;;1.36;82.68;100024.21;1661127;84;26487;-81
2021/01/01 03:30:21;;;;;;;53.73;22.70;;;;;;;1.30;82.81;100027.42;1671692;84;26753;-81
2021/01/01 03:32:48;;;;;;;64.20;21.85;;;;;;;1.25;83.00;100028.33;1666436;85;25889;-81
2021/01/01 03:35:16;;;;;;;57.17;23.32;;;;;;;1.23;83.08;100030.27;1657692;82;27329;-81
2021/01/01 03:37:43;;;;;;;53.60;22.67;;;;;;;1.18;83.23;100029.38;1674759;85;25941;-81
2021/01/01 03:40:11;;;;;;;64.37;23.30;;;;;;;1.14;83.34;100031.95;1690384;83;25957;-81
2021/01/01 03:42:38;;;;;;;58.52;26.70;;;;;;;1.14;83.46;100033.27;1682832;84;25901;-81
2021/01/01 03:45:10;;;;;;;57.80;23.92;;;;;;;1.18;83.69;100028.05;1661291;84;25834;-82
2021/01/01 03:47:37;;;;;;;;;;;;;;;1.24;83.70;100026.67;1674566;84;27524;-81
2021/01/01 03:50:05;;;;;;;61.90;25.45;;;;;;;1.26;83.75;100030.81;1692652;83;25957;-81
2021/01/01 03:52:33;;;;;;;60.58;25.08;;;;;;;1.26;83.72;100025.53;1683717;84;25769;-81
2021/01/01 03:55:00;;;;;;;57.95;23.35;;;;;;;1.30;83.67;100024.30;1635807;83;25398;-81
2021/01/01 03:57:28;;;;;;;60.17;22.20;;;;;;;1.26;83.37;100022.90;1657986;84;26095;-81
2021/01/01 03:59:55;;;;;;;59.90;22.20;;;;;;;1.16;83.40;100029.16;1635163;83;28006;-81
2021/01/01 04:02:23;;;;;;;61.92;24.02;;;;;;;1.10;83.50;100023.98;1698418;81;25857;-81
2021/01/01 04:04:50;;;;;;;59.98;23.30;;;;;;;1.09;83.65;100028.08;1652099;83;25800;-81
2021/01/01 04:07:18;;;;;;;54.98;22.32;;;;;;;1.11;83.83;100021.67;1677904;81;26177;-81
2021/01/01 04:09:45;;;;;;;60.33;24.10;;;;;;;1.13;83.77;100025.03;1727662;81;25834;-81
2021/01/01 04:12:13;;;;;;;64.00;26.10;;;;;;;1.15;83.86;100024.88;1698481;82;27707;-81
2021/01/01 04:14:41;;;;;;;71.45;27.05;;;;;;;1.19;83.89;100020.50;1651275;83;25860;-81
2021/01/01 04:17:08;;;;;;;67.37;27.93;;;;;;;1.25;83.86;100026.53;1665408;84;25400;-81
2021/01/01 04:19:35;;;;;;;66.40;27.32;;;;;;;1.28;83.84;100023.59;1650076;84;26590;-81
2021/01/01 04:22:03;;;;;;;66.60;27.60;;;;;;;1.32;83.87;100023.67;1674250;84;26165;-81
2021/01/01 04:24:31;;;;;;;71.07;28.67;;;;;;;1.34;83.87;100023.52;1628187;84;28617;-81
2021/01/01 04:26:58;;;;;;;66.15;27.17;;;;;;;1.37;83.84;100018.78;1623751;83;25786;-81
2021/01/01 04:29:26;;;;;;;65.78;27.27;;;;;;;1.40;83.80;100022.47;1651396;84;25747;-81
2021/01/01 04:31:54;;;;;;;69.85;26.95;;;;;;;1.43;83.67;100030.59;1676546;84;25813;-82
2021/01/01 04:34:22;;;;;;;68.10;25.43;;;;;;;1.43;83.63;100033.23;1682352;84;26135;-81
2021/01/01 04:36:49;;;;;;;65.72;27.17;;;;;;;1.44;83.43;100029.60;1655177;83;27555;-81
2021/01/01 04:39:17;;;;;;;54.58;23.52;;;;;;;1.46;83.55;100028.49;1679379;84;26425;-81
2021/01/01 04:41:45;;;;;;;62.27;24.72;;;;;;;1.49;83.40;100031.34;1682295;84;25490;-81
2021/01/01 04:44:15;;;;;;;62.78;23.85;;;;;;;1.49;83.34;100032.66;1639957;86;25967;-81
2021/01/01 04:46:42;;;;;;;66.80;24.27;;;;;;;1.51;83.32;100032.03;1663838;83;26493;-81
2021/01/01 04:49:10;;;;;;;54.55;23.92;;;;;;;1.53;83.35;100031.39;1677419;83;27087;-82
2021/01/01 04:51:37;;;;;;;61.77;25.70;;;;;;;1.49;83.15;100027.38;1676281;84;26194;-81
2021/01/01 04:54:05;;;;;;;66.17;24.57;;;;;;;1.45;83.17;100026.81;1664787;83;25795;-81
2021/01/01 04:56:32;;;;;;;61.90;23.70;;;;;;;1.48;83.46;100030.98;1643562;85;25841;-81
2021/01/01 04:59:01;;;;;;;61.70;22.73;;;;;;;1.50;83.31;100031.67;1659211;85;26241;-81
2021/01/01 05:01:29;;;;;;;64.62;24.10;;;;;;;1.48;83.15;100037.09;1678244;84;28440;-81
2021/01/01 05:03:56;;;;;;;60.88;23.62;;;;;;;1.48;83.18;100039.73;1601514;83;26189;-81
2021/01/01 05:06:30;;;;;;;58.60;23.55;;;;;;;1.45;83.27;100029.45;1639427;84;25972;-80
2021/01/01 05:09:03;;;;;;;62.20;25.62;;;;;;;1.48;83.29;100036.26;1656065;83;26429;-81
2021/01/01 05:11:31;;;;;;;59.53;24.30;;;;;;;1.49;83.15;100039.25;1699740;83;25920;-81
2021/01/01 05:14:04;;;;;;;61.83;24.18;;;;;;;1.48;82.96;100046.81;1657308;81;27843;-81
2021/01/01 05:16:32;;;;;;;54.75;21.60;;;;;;;1.47;83.11;100051.77;1674482;83;25827;-81
2021/01/01 05:18:59;;;;;;;52.80;22.60;;;;;;;1.47;82.93;100049.97;1717484;81;25847;-81
2021/01/01 05:21:28;;;;;;;56.05;23.50;;;;;;;1.43;82.92;100057.80;1710522;81;25621;-81
2021/01/01 05:23:57;;;;;;;59.83;23.60;;;;;;;1.44;83.00;100055.52;1671656;84;25953;-81
2021/01/01 05:26:28;;;;;;;67.32;26.62;;;;;;;1.45;82.95;100062.44;1638580;84;27555;-81
2021/01/01 05:29:05;;;;;;;57.45;23.90;;;;;;;1.48;83.06;100062.65;1660796;84;25812;-81
2021/01/01 05:31:39;;;;;;;54.85;22.27;;;;;;;1.49;83.07;100060.37;1703315;82;26350;-82
2021/01/01 05:36:49;;;;;;;54.33;22.80;;;;;;;1.54;82.98;100060.75;1791353;79;25748;-81
2021/01/01 05:39:21;;;;;;;54.45;23.10;;;;;;;1.46;82.88;100059.32;1731091;81;25393;-81
2021/01/01 05:41:52;;;;;;;54.40;23.15;;;;;;;1.46;82.99;100063.28;1747647;80;26502;-81
2021/01/01 05:44:30;;;;;;;61.30;23.02;;;;;;;1.42;82.84;100054.83;1759805;80;25949;-81
2021/01/01 05:47:06;;;;;;;61.05;23.30;;;;;;;1.43;82.88;100049.88;1726447;80;25874;-82
2021/01/01 05:49:38;;;;;;;53.23;21.93;;;;;;;1.40;82.91;100054.61;1756295;80;25381;-81
2021/01/01 05:52:25;;;;;;;56.25;22.20;;;;;;;1.38;82.86;100058.72;1743184;80;25960;-82
2021/01/01 05:55:06;;;;;;;46.60;18.98;;;;;;;1.36;82.84;100054.55;1761668;80;27619;-81
2021/01/01 05:57:39;;;;;;;49.08;19.48;;;;;;;1.31;82.71;100057.61;1702270;80;25561;-82
2021/01/01 06:00:15;;;;;;;49.33;20.62;;;;;;;1.26;82.69;100058.52;1797611;79;25718;-81
2021/01/01 06:02:45;;;;;;;53.23;21.12;;;;;;;1.21;82.92;100062.56;1739920;80;25759;-81
2021/01/01 06:05:13;;;;;;;57.85;23.90;;;;;;;1.20;82.95;100066.99;1749397;80;28044;-82
2021/01/01 06:07:41;;;;;;;55.70;22.17;;;;;;;1.21;83.15;100064.72;1744056;81;25900;-81
2021/01/01 06:10:11;;;;;;;49.65;20.90;;;;;;;1.24;83.11;100060.46;1679348;81;26004;-82
2021/01/01 06:12:40;;;;;;;42.78;19.50;;;;;;;1.22;82.89;100059.77;1711725;81;25947;-81
2021/01/01 06:15:09;;;;;;;52.05;21.20;;;;;;;1.19;83.01;100061.39;1699150;82;26526;-81
2021/01/01 06:17:52;;;;;;;56.15;22.90;;;;;;;1.21;83.00;100065.20;1734925;80;27544;-81
2021/01/01 06:20:21;;;;;;;50.75;20.70;;;;;;;1.23;83.24;100062.77;1716614;82;25878;-81
2021/01/01 06:23:05;;;;;;;51.30;22.00;;;;;;;1.25;83.01;100058.66;1733760;82;26699;-81
2021/01/01 06:25:35;;;;;;;50.28;20.77;;;;;;;1.25;83.00;100066.09;1707603;82;25829;-82
2021/01/01 06:28:03;;;;;;;53.20;21.65;;;;;;;1.28;83.21;100066.31;1736233;82;26511;-81
2021/01/01 06:30:33;;;;;;;62.13;24.43;;;;;;;1.31;83.11;100069.48;1674374;83;27615;-82
2021/01/01 06:33:06;;;;;;;57.85;23.45;;;;;;;1.32;83.09;100068.53;1745966;81;25769;-81
2021/01/01 06:35:46;;;;;;;59.53;23.73;;;;;;;1.27;83.03;100068.11;1705725;82;25703;-82
2021/01/01 06:38:38;;;;;;;53.38;21.87;;;;;;;1.27;82.95;100065.95;1727024;80;25935;-82
2021/01/01 06:41:14;;;;;;;54.77;23.22;;;;;;;1.23;83.04;100067.20;1708347;83;25917;-82
2021/01/01 06:43:54;;;;;;;52.70;21.15;;;;;;;1.26;83.22;100073.53;1688817;82;27545;-82
2021/01/01 06:46:39;;;;;;;55.73;20.92;;;;;;;1.28;83.14;100069.75;1669313;84;26002;-83
2021/01/01 06:49:14;;;;;;;51.77;22.65;;;;;;;1.32;83.06;100072.48;1682740;84;25774;-83
2021/01/01 06:51:42;;;;;;;53.75;23.15;;;;;;;1.35;83.12;100061.63;1656600;84;25798;-83
2021/01/01 06:54:11;;;;;;;53.38;22.25;;;;;;;1.38;83.01;100067.96;1666023;84;26240;-82
2021/01/01 06:56:43;;;;;;;54.58;22.80;;;;;;;1.39;83.00;100063.52;1694526;84;28250;-83
2021/01/01 06:59:13;;;;;;;47.17;19.57;;;;;;;1.38;83.03;100063.16;1678052;84;26448;-85
2021/01/01 07:01:43;;;;;;;42.80;19.73;;;;;;;1.41;83.06;100063.70;1674693;84;26269;-84
2021/01/01 07:04:12;;;;;;;52.30;20.80;;;;;;;1.43;82.80;100068.34;1638753;85;26083;-85
2021/01/01 07:06:42;;;;;;;48.52;21.40;;;;;;;1.40;82.69;100068.65;1657575;84;25847;-84
2021/01/01 07:09:11;;;;;;;53.58;23.35;;;;;;;1.37;82.60;100068.92;1672426;84;27547;-81
2021/01/01 07:11:39;;;;;;;48.17;20.43;;;;;;;1.34;82.53;100070.54;1645640;86;25634;-81
2021/01/01 07:14:12;;;;;;;52.03;20.77;;;;;;;1.33;82.55;100076.77;1634421;85;26345;-82
2021/01/01 07:16:43;;;;;;;48.60;19.70;;;;;;;1.31;82.50;100076.56;1674372;84;25868;-81
2021/01/01 07:19:10;;;;;;;48.92;20.82;;;;;;;1.29;82.56;100078.51;1678831;84;26373;-81
2021/01/01 07:21:39;;;;;;;46.60;19.92;;;;;;;1.27;82.56;100077.34;1633912;84;27223;-81
2021/01/01 07:24:07;;;;;;;44.48;18.17;;;;;;;1.30;82.69;100079.71;1697752;84;25844;-81
2021/01/01 07:26:34;;;;;;;47.70;21.25;;;;;;;1.31;82.58;100073.45;1636524;84;25377;-82
2021/01/01 07:29:03;;;;;;;49.18;21.12;;;;;;;1.33;82.61;100077.25;1682884;84;25418;-81
2021/01/01 07:31:31;;;;;;;50.50;20.90;;;;;;;1.34;82.47;100077.13;1597131;86;25846;-81
2021/01/01 07:34:08;;;;;;;51.18;20.65;;;;;;;1.29;82.36;100079.34;1634497;84;28579;-82
2021/01/01 07:36:36;;;;;;;46.00;19.37;;;;;;;1.30;82.37;100074.44;1656949;82;25899;-82
2021/01/01 07:39:07;;;;;;;63.42;25.82;;;;;;;1.31;82.30;100076.08;1685334;84;25843;-81
2021/01/01 07:41:34;;;;;;;50.88;21.40;;;;;;;1.32;82.44;100076.92;1679308;84;26370;-79
2021/01/01 07:44:02;;;;;;;49.20;20.35;;;;;;;1.30;82.36;100079.71;1679951;84;25868;-81
2021/01/01 07:46:30;;;;;;;71.05;47.08;;;;;;;1.26;82.43;100076.17;1675966;84;27068;-80
2021/01/01 07:48:58;;;;;;;50.20;22.20;;;;;;;1.25;82.50;100079.29;1677666;84;25635;-82
2021/01/01 07:51:26;;;;;;;44.83;20.20;;;;;;;1.27;82.50;100082.62;1642885;84;25797;-83
2021/01/01 07:54:01;;;;;;;43.48;21.12;;;;;;;1.27;82.43;100081.77;1670125;84;25759;-83
2021/01/01 07:56:29;;;;;;;50.08;24.92;;;;;;;1.23;82.27;100089.15;1655929;84;25901;-82
2021/01/01 07:58:56;;;;;;;47.75;18.75;;;;;;;1.16;82.40;100088.03;1668156;84;28216;-83
2021/01/01 08:01:24;;;;;;;39.90;18.05;;;;;;;1.16;82.38;100089.35;1622065;85;25820;-82
2021/01/01 08:03:51;;;;;;;34.25;16.42;;;;;;;1.17;82.55;100092.83;1655807;85;25822;-84
2021/01/01 08:06:19;;;;;;;33.90;15.23;;;;;;;1.20;82.47;100096.48;1671942;85;25920;-83
2021/01/01 08:08:47;;;;;;;32.90;15.80;;;;;;;1.20;82.21;100099.13;1658473;84;26082;-83
2021/01/01 08:11:15;;;;;;;32.28;15.18;;;;;;;1.17;82.05;100103.38;1640143;85;27539;-83
2021/01/01 08:13:42;;;;;;;33.33;15.03;;;;;;;1.14;82.11;100108.44;1656277;84;25795;-83
2021/01/01 08:16:15;;;;;;;36.20;15.65;;;;;;;1.16;82.22;100103.02;1681474;84;25960;-82
2021/01/01 08:18:43;;;;;;;33.23;16.30;;;;;;;1.16;82.34;100111.77;1664863;85;26001;-83
2021/01/01 08:21:11;;;;;;;38.67;19.92;;;;;;;1.20;82.30;100112.31;1642130;86;26447;-83
2021/01/01 08:24:00;;;;;;;30.77;14.90;;;;;;;1.22;82.24;100117.00;1629161;86;27566;-83
2021/01/01 08:26:28;;;;;;;31.93;14.93;;;;;;;1.17;81.92;100113.93;1623329;85;26077;-83
2021/01/01 08:28:58;;;;;;;39.78;16.42;;;;;;;1.13;82.08;100119.14;1653466;84;26479;-82
2021/01/01 08:31:26;;;;;;;35.30;17.10;;;;;;;1.15;82.13;100113.23;1617828;85;26018;-82
2021/01/01 08:33:54;;;;;;;36.80;15.32;;;;;;;1.19;82.18;100114.14;1648511;85;25822;-83
2021/01/01 08:36:31;;;;;;;36.93;16.48;;;;;;;1.18;82.01;100111.14;1663692;85;28720;-83
2021/01/01 08:39:11;;;;;;;33.88;18.20;;;;;;;1.18;82.03;100115.58;1666126;85;25890;-82
2021/01/01 08:41:45;;;;;;;32.15;16.15;;;;;;;1.21;82.04;100113.52;1617896;85;26245;-83
2021/01/01 08:44:14;;;;;;;34.43;17.98;;;;;;;1.21;81.95;100117.95;1655839;85;25815;-82
2021/01/01 08:46:42;;;;;;;41.25;18.67;;;;;;;1.21;82.01;100121.44;1686707;84;25820;-83
2021/01/01 08:49:21;;;;;;;33.78;16.15;;;;;;;1.19;82.16;100119.90;1658709;85;27552;-81
2021/01/01 08:51:50;;;;;;;39.70;18.85;;;;;;;1.14;81.88;100119.47;1618498;86;25746;-82
2021/01/01 08:54:27;;;;;;;40.23;18.30;;;;;;;1.13;82.08;100115.19;1616970;86;25936;-82
2021/01/01 08:57:00;;;;;;;60.43;24.47;;;;;;;1.17;82.25;100112.13;1649514;85;25923;-83
2021/01/01 08:59:30;;;;;;;147.25;53.38;;;;;;;1.19;82.27;100115.94;1641970;85;26175;-82
2021/01/01 09:04:40;;;;;;;48.65;21.90;;;;;;;1.33;82.35;100108.91;1825181;77;25734;-82
2021/01/01 09:07:13;;;;;;;51.53;22.48;;;;;;;1.31;82.39;100113.02;1762216;80;25942;-82
2021/01/01 09:09:40;;;;;;;51.33;23.20;;;;;;;1.30;82.28;100106.09;1738815;81;28280;-83
2021/01/01 09:12:21;;;;;;;51.15;22.70;;;;;;;1.30;82.38;100111.85;1746119;81;25817;-82
2021/01/01 09:14:57;;;;;;;54.93;22.35;;;;;;;1.31;82.30;100113.50;1712078;81;25889;-82
2021/01/01 09:17:25;;;;;;;44.15;19.50;;;;;;;1.31;82.30;100113.02;1719873;81;26555;-83
2021/01/01 09:20:10;;;;;;;45.48;21.30;;;;;;;1.31;82.18;100114.81;1764705;80;25888;-83
2021/01/01 09:22:38;;;;;;;47.20;23.38;;;;;;;1.28;82.35;100114.61;1760394;80;27625;-81
2021/01/01 09:25:25;;;;;;;52.45;22.95;;;;;;;1.29;82.49;100116.28;1687073;83;26031;-83
2021/01/01 09:27:55;;;;;;;45.90;21.42;;;;;;;1.33;82.43;100117.67;1703356;81;26018;-84
2021/01/01 09:30:27;;;;;;;46.05;19.45;;;;;;;1.35;82.45;100122.31;1699647;83;25795;-82
2021/01/01 09:33:00;;;;;;;53.00;24.40;;;;;;;1.28;82.08;100119.88;1728542;81;25867;-84
2021/01/01 09:35:30;;;;;;;39.65;19.55;;;;;;;1.25;82.40;100124.61;1701643;81;27554;-82
2021/01/01 09:38:02;;;;;;;41.83;19.55;;;;;;;1.21;82.29;100120.11;1648503;83;26078;-84
2021/01/01 09:40:32;;;;;;;38.48;20.05;;;;;;;1.21;82.50;100117.47;1647485;83;25919;-78
2021/01/01 09:43:06;;;;;;;42.23;18.52;;;;;;;1.25;82.61;100122.81;1675611;84;25860;-82
2021/01/01 09:45:36;;;;;;;41.80;20.55;;;;;;;1.26;82.47;100122.34;1640056;85;25925;-83
2021/01/01 09:48:05;;;;;;;33.85;16.10;;;;;;;1.27;82.44;100123.98;1641050;85;28585;-81
2021/01/01 09:50:32;;;;;;;41.37;20.10;;;;;;;1.26;82.20;100121.02;1639520;85;25956;-82
2021/01/01 09:53:01;;;;;;;46.70;23.47;;;;;;;1.19;82.50;100121.22;1651062;84;26751;-84
2021/01/01 09:55:30;;;;;;;44.83;20.52;;;;;;;1.22;82.84;100121.77;1630646;85;25806;-81
2021/01/01 09:57:58;;;;;;;44.15;20.50;;;;;;;1.27;82.79;100116.91;1648607;84;25909;-81
2021/01/01 10:00:27;;;;;;;41.98;19.80;;;;;;;1.28;82.73;100113.80;1693467;83;28271;-82
2021/01/01 10:02:55;;;;;;;57.33;31.10;;;;;;;1.31;82.67;100124.05;1654348;85;26287;-80
2021/01/01 10:05:25;;;;;;;44.50;24.40;;;;;;;1.33;82.57;100118.15;1626337;85;26505;-81
2021/01/01 10:07:53;;;;;;;46.18;23.98;;;;;;;1.33;82.42;100116.35;1594892;85;25877;-80
2021/01/01 10:10:20;;;;;;;46.53;25.37;;;;;;;1.35;82.43;100112.24;1649893;84;25952;-80
2021/01/01 10:12:48;;;;;;;50.15;29.90;;;;;;;1.39;82.48;100119.74;1659947;84;27318;-80
2021/01/01 10:15:15;;;;;;;39.05;18.65;;;;;;;1.39;82.51;100119.74;1638820;84;25864;-80
2021/01/01 10:17:43;;;;;;;34.23;17.87;;;;;;;1.38;82.32;100118.09;1663913;84;25794;-81
2021/01/01 10:20:12;;;;;;;39.03;21.42;;;;;;;1.35;82.19;100113.56;1702711;82;26643;-80
2021/01/01 10:22:39;;;;;;;118.90;78.35;;;;;;;1.34;82.41;100118.52;1667133;84;26048;-80
2021/01/01 10:25:07;;;;;;;39.27;22.52;;;;;;;1.35;82.43;100109.61;1633901;84;27561;-80
2021/01/01 10:27:35;;;;;;;37.33;18.02;;;;;;;1.37;82.33;100108.50;1669921;84;25903;-81
2021/01/01 10:30:06;;;;;;;36.68;20.20;;;;;;;1.37;82.26;100103.22;1698645;84;25869;-81
2021/01/01 10:32:33;;;;;;;55.55;25.48;;;;;;;1.39;82.30;100101.78;1693679;84;26494;-80
2021/01/01 10:35:01;;;;;;;71.30;35.78;;;;;;;1.42;82.37;100098.84;1669141;84;25913;-80
2021/01/01 10:37:28;;;;;;;115.32;60.92;;;;;;;1.42;82.21;100094.89;1665994;84;27541;-80
2021/01/01 10:39:56;;;;;;;72.03;41.28;;;;;;;1.38;82.10;100095.66;1676593;84;25989;-80
2021/01/01 10:42:27;;;;;;;50.70;29.42;;;;;;;1.38;82.23;100096.98;1687901;84;25867;-80
2021/01/01 10:44:55;;;;;;;34.48;18.75;;;;;;;1.38;82.26;100098.30;1622757;85;25813;-80
2021/01/01 10:47:22;;;;;;;31.02;14.68;;;;;;;1.39;82.10;100094.67;1690006;82;25428;-80
2021/01/01 10:49:50;;;;;;;33.35;15.18;;;;;;;1.39;81.77;100096.51;1704409;82;27311;-81
2021/01/01 10:52:17;;;;;;;32.33;16.42;;;;;;;1.37;81.74;100098.42;1728764;82;25888;-80
2021/01/01 10:54:46;;;;;;;32.45;14.65;;;;;;;1.35;81.65;100101.69;1644656;82;26423;-80
2021/01/01 10:57:13;;;;;;;35.38;17.20;;;;;;;1.33;81.61;100098.36;1709022;82;25901;-81
2021/01/01 10:59:41;;;;;;;35.55;16.62;;;;;;;1.28;81.60;100094.81;1678035;84;25906;-81
2021/01/01 11:02:08;;;;;;;33.13;16.95;;;;;;;1.27;81.68;100095.81;1670366;84;27619;-80
2021/01/01 11:04:36;;;;;;;62.73;30.10;;;;;;;1.25;81.25;100095.12;1605325;84;26021;-80
2021/01/01 11:07:03;;;;;;;36.85;19.70;;;;;;;1.21;81.47;100090.25;1611061;85;25917;-81
2021/01/01 11:09:31;;;;;;;38.17;17.57;;;;;;;1.22;81.79;100092.75;1677089;83;25854;-80
2021/01/01 11:11:59;;;;;;;35.90;18.70;;;;;;;1.22;81.82;100092.75;1684052;84;26412;-80
2021/01/01 12:23:43;;;;;;;40.30;20.88;;;;;;;1.22;81.90;100103.30;1747281;80;28271;-82
2021/01/01 12:26:04;;;;;;;35.70;17.05;;;;;;;1.23;81.92;100106.77;1753784;79;25835;-82
2021/01/01 12:28:35;;;;;;;41.85;20.00;;;;;;;1.22;81.76;100102.48;1722048;80;25776;-82
2021/01/01 12:31:05;;;;;;;39.23;16.82;;;;;;;1.19;81.79;100103.59;1745940;80;25769;-81
2021/01/01 12:33:33;;;;;;;71.25;34.27;;;;;;;1.17;81.90;100106.02;1709295;80;25988;-82
2021/01/01 12:36:00;;;;;;;39.70;18.73;;;;;;;1.21;82.04;100106.08;1774253;80;27533;-82
2021/01/01 12:38:29;;;;;;;43.33;19.23;;;;;;;1.22;81.90;100107.25;1698510;80;34812;-82
2021/01/01 12:40:56;;;;;;;40.10;19.75;;;;;;;1.23;82.00;100104.14;1707744;81;25860;-82